x

Stennis Test Facility (ostf1) Weather Station

6:50pm - Thu 30th Mar 2017 All times are CDT. -5 hours from GMT.

  • Wind
    4mph, 7mph gusts
  • Air Temp 68°f
  • Sea Pressure 1008.4mb
  • Stennis Test Facility
  • Stennis Test Facility

More Historic Weather Station data

Upgrade to MSW Pro to gain access to the past 30 days of data for over 8000 Wavebouys and Weather Stations around the globe.

Join Pro

Comparision Forecast

View Surf forecast
   
Thu 03/30 6:50pm 4 7 mph 1008.4mb 68f
5:50pm 2 4 mph 1007.4mb 67f
4:50pm 4 9 mph 1007.8mb 66f
3:50pm 2 4 mph 1007.6mb 64f
2:50pm  -  2 mph 1009.6mb 62f
1:50pm  -  2 mph 1013.2mb 62f
12:50pm 2 7 mph 1014.1mb 62f
11:50am  -  2 mph 1014.6mb 62f
10:50am 4 11 mph 1014.6mb 61f
9:50am 4 9 mph 1012.6mb 73f
8:50am 4 7 mph 1013mb 73f
7:50am 2 4 mph 1012.2mb 71f
6:50am  -  2 mph 1012.6mb 70f
5:50am 2 4 mph 1012.8mb 72f
4:50am 4 9 mph 1012.5mb 73f
3:50am 4 11 mph 1011.9mb 73f
2:50am 4 9 mph 1012.5mb 72f
1:50am 2 4 mph 1013mb 72f
12:50am 4 9 mph 1013.3mb 73f
Wed 03/29 11:50pm 7 13 mph 1013.3mb 73f
10:50pm 4 9 mph 1013.9mb 73f
9:50pm 4 9 mph 1013.7mb 73f
8:50pm 4 7 mph 1013.5mb 72f
7:50pm 2 7 mph 1013.4mb 73f
6:50pm 4 11 mph 1014mb 74f
5:50pm 7 11 mph 1014.1mb 77f
4:50pm 7 13 mph 1013.7mb 79f
3:50pm 7 13 mph 1014.1mb 79f
2:50pm 7 13 mph 1014.8mb 78f
1:50pm 9 13 mph 1015.4mb 80f
12:50pm 7 11 mph 1016.5mb 79f
11:50am 9 16 mph 1017.3mb 78f
10:50am 7 13 mph 1017.4mb 77f
9:50am 7 13 mph 1015.7mb 74f
8:50am 4 9 mph 1015.2mb 72f
7:50am 4 9 mph 1013.5mb 70f
6:50am 4 7 mph 1012.8mb 68f
5:50am 2
mph
1012.9mb 67f
4:50am  -  2 mph 1013mb 67f
3:50am  -  2 mph 1012.5mb 68f
2:50am  -  2 mph 1013.5mb 69f
1:50am 2 7 mph 1014.3mb 71f
12:50am  -  2 mph 1014.8mb 69f
Tue 03/28 11:50pm  -  2 mph 1015.1mb 69f
10:50pm 2 4 mph 1015.2mb 70f
9:50pm  -  2 mph 1015.3mb 70f
8:50pm 2 4 mph 1015mb 71f
7:50pm  -  mph 1015.1mb 72f
6:50pm 4 9 mph 1014.9mb 76f
5:50pm 9 13 mph 1014.7mb 78f
4:50pm 9 13 mph 1014.6mb 80f
3:50pm 7 11 mph 1014.8mb 80f
2:50pm 7 13 mph 1015.4mb 80f
1:50pm 7 13 mph 1015.9mb 81f
12:50pm 4 11 mph 1016.7mb 80f
11:50am 2 7 mph 1017.2mb 78f
10:50am 4 11 mph 1017.6mb 78f
9:50am 2 7 mph 1017.2mb 75f
8:50am 2 4 mph 1016.9mb 71f
7:50am  -  mph 1016.5mb 66f
6:50am  -  mph 1015.8mb 65f
5:50am  -  2 mph 1015.3mb 65f
4:50am  -  mph 1014.8mb 65f
3:50am  -  2 mph 1014.5mb 67f
2:50am  -  mph 1014.7mb 67f
1:50am  -  mph 1014.8mb 69f
12:50am  -  2 mph 1015.2mb 70f
Mon 03/27 11:50pm  -  2 mph 1015.4mb 70f
10:50pm 4 7 mph 1015.4mb 71f
9:50pm 4 7 mph 1015.3mb 71f
8:50pm 4 7 mph 1014.9mb 73f
7:50pm 4 11 mph 1014.3mb 73f
6:50pm 7 11 mph 1014.2mb 75f
5:50pm 9 18 mph 1013.9mb 77f
4:50pm 9 16 mph 1014.4mb 77f
3:50pm 9 16 mph 1015mb 78f
2:50pm 9 20 mph 1015.5mb 79f
1:50pm 9 18 mph 1016.1mb 79f
12:50pm 9 18 mph 1016.7mb 77f
11:50am 9 13 mph 1017.1mb 78f
10:50am 9 16 mph 1017.2mb 77f
9:50am 7 11 mph 1016.9mb 75f
8:50am 4 9 mph 1016.8mb 72f
7:50am 2 7 mph 1016.6mb 70f
6:50am 2 4 mph 1016.5mb 70f
5:50am 2 7 mph 1015.9mb 71f
4:50am 4 9 mph 1015.8mb 71f
3:50am 4 9 mph 1015.6mb 71f
2:50am 4 9 mph 1015.6mb 71f
1:50am 4 11 mph 1015.5mb 72f
12:50am 4 11 mph 1015.8mb 71f